Time;durP1;ratioP1;P1;durP2;ratioP2;P2;SDS_P1;SDS_P2;PMS_P1;PMS_P2;Temp;Humidity;BMP_temperature;BMP_pressure;BME280_temperature;BME280_humidity;BME280_pressure;Samples;Min_cycle;Max_cycle;Signal;HPM_P1;HPM_P2
2024/04/18 00:00:37;;;;;;;25.90;17.80;;;;;;;5.06;69.48;99746.94;111055;1252;21956;-74
2024/04/18 00:03:26;;;;;;;22.70;16.70;;;;;;;5.04;69.58;99750.36;110992;1252;21952;-74
2024/04/18 00:05:55;;;;;;;24.00;15.70;;;;;;;5.04;69.78;99748.93;111074;1252;23620;-74
2024/04/18 00:08:24;;;;;;;20.60;15.50;;;;;;;5.05;69.82;99746.62;111269;1252;23097;-74
2024/04/18 00:10:57;;;;;;;18.80;14.20;;;;;;;5.05;69.77;99748.02;111330;1252;22044;-75
2024/04/18 00:13:38;;;;;;;21.10;15.60;;;;;;;5.05;70.18;99748.17;111201;1252;21964;-72
2024/04/18 00:16:06;;;;;;;21.00;15.30;;;;;;;5.07;70.24;99748.63;111206;1252;23754;-74
2024/04/18 00:18:35;;;;;;;18.50;15.10;;;;;;;5.08;70.02;99750.83;111286;1252;21952;-74
2024/04/18 00:21:23;;;;;;;20.50;15.50;;;;;;;5.06;69.91;99753.20;111214;1252;21948;-74
2024/04/18 00:23:55;;;;;;;22.50;14.90;;;;;;;5.05;70.17;99753.45;110996;1252;21957;-74
2024/04/18 00:26:43;;;;;;;24.40;16.60;;;;;;;5.03;69.98;99757.55;111191;1252;21976;-73
2024/04/18 00:29:11;;;;;;;23.50;16.20;;;;;;;5.02;69.93;99755.53;111286;1252;21973;-73
2024/04/18 00:31:40;;;;;;;23.50;16.70;;;;;;;5.01;70.27;99755.89;110916;1252;21973;-73
2024/04/18 00:34:09;;;;;;;27.40;18.30;;;;;;;5.02;70.40;99757.25;111306;1252;21969;-74
2024/04/18 00:36:47;;;;;;;23.00;17.60;;;;;;;5.03;70.61;99758.39;111274;1252;21965;-74
2024/04/18 00:39:25;;;;;;;21.60;15.80;;;;;;;5.05;70.58;99754.30;110918;1252;21953;-74
2024/04/18 00:42:00;;;;;;;24.70;17.50;;;;;;;5.06;70.24;99750.38;111196;1252;21958;-74
2024/04/18 00:44:31;;;;;;;25.40;16.80;;;;;;;5.07;70.39;99752.45;111220;1252;22745;-74
2024/04/18 00:47:13;;;;;;;21.20;15.30;;;;;;;5.06;70.60;99748.15;111222;1252;22999;-75
2024/04/18 00:50:07;;;;;;;22.30;16.00;;;;;;;5.05;70.79;99749.95;111233;1252;23703;-75
2024/04/18 00:52:42;;;;;;;20.80;15.00;;;;;;;5.04;70.67;99748.08;111417;1252;163143;-75
2024/04/18 00:55:29;;;;;;;20.00;15.70;;;;;;;5.04;70.60;99746.34;111233;1252;21970;-74
2024/04/18 00:58:11;;;;;;;19.00;14.50;;;;;;;5.04;70.64;99743.21;111542;1244;22144;-75
2024/04/18 01:00:47;;;;;;;21.10;16.40;;;;;;;5.06;70.81;99744.84;111202;1252;21954;-75
2024/04/18 01:03:39;;;;;;;21.50;16.10;;;;;;;5.07;70.77;99743.73;111348;1252;21949;-75
2024/04/18 01:06:09;;;;;;;21.20;15.10;;;;;;;5.09;70.86;99745.33;111212;1252;21941;-74
2024/04/18 01:08:58;;;;;;;22.50;16.20;;;;;;;5.10;70.93;99748.44;111229;1252;21954;-75
2024/04/18 01:11:33;;;;;;;21.10;15.30;;;;;;;5.10;70.85;99749.98;111033;1252;22019;-73
2024/04/18 01:14:09;;;;;;;22.90;17.20;;;;;;;5.12;70.82;99756.02;111221;1252;21953;-72
2024/04/18 01:16:57;;;;;;;24.60;17.30;;;;;;;5.09;70.90;99761.73;111219;1252;23675;-74
2024/04/18 01:19:26;;;;;;;24.30;18.80;;;;;;;5.08;70.99;99766.00;111485;1252;21966;-73
2024/04/18 01:21:55;;;;;;;23.90;17.40;;;;;;;5.08;71.19;99768.95;111288;1252;22035;-73
2024/04/18 01:24:28;;;;;;;19.60;16.90;;;;;;;5.07;71.23;99767.10;111251;1252;24482;-74
2024/04/18 01:26:58;;;;;;;20.50;17.60;;;;;;;5.06;71.31;99763.16;110932;1252;21960;-75
2024/04/18 01:29:45;;;;;;;22.70;20.30;;;;;;;5.04;71.27;99762.92;111194;1252;21948;-74
2024/04/18 01:32:40;;;;;;;26.70;23.90;;;;;;;5.03;71.22;99763.46;111462;1252;21956;-74
2024/04/18 01:35:09;;;;;;;24.50;21.90;;;;;;;5.07;71.27;99763.45;111222;1252;22719;-74
2024/04/18 01:37:47;;;;;;;22.60;20.20;;;;;;;5.08;71.18;99764.73;111190;1252;21962;-73
2024/04/18 01:40:16;;;;;;;23.90;20.20;;;;;;;5.10;71.30;99763.79;111245;1252;21961;-73
2024/04/18 01:43:07;;;;;;;24.70;21.20;;;;;;;5.10;71.35;99766.05;111063;1252;21953;-73
2024/04/18 01:45:55;;;;;;;23.20;20.10;;;;;;;5.11;71.53;99767.05;111365;1252;21982;-73
2024/04/18 01:48:24;;;;;;;22.70;20.30;;;;;;;5.12;71.37;99766.95;111223;1252;21943;-73
2024/04/18 01:51:12;;;;;;;23.30;18.30;;;;;;;5.13;71.28;99767.30;111203;1252;21960;-73
2024/04/18 01:53:41;;;;;;;22.30;19.50;;;;;;;5.14;71.25;99766.33;111026;1252;24096;-75
2024/04/18 01:56:19;;;;;;;21.80;19.00;;;;;;;5.15;71.31;99767.13;111186;1252;21942;-75
2024/04/18 01:58:48;;;;;;;21.70;19.30;;;;;;;5.17;71.32;99770.34;111224;1252;21943;-73
2024/04/18 02:01:23;;;;;;;21.40;18.50;;;;;;;5.19;71.27;99773.02;111384;1252;21950;-74
2024/04/18 02:03:52;;;;;;;22.00;18.20;;;;;;;5.21;71.24;99774.13;111258;1252;21959;-75
2024/04/18 02:06:21;;;;;;;25.10;18.70;;;;;;;5.23;71.31;99781.86;111297;1252;21965;-75
2024/04/18 02:08:50;;;;;;;21.40;19.10;;;;;;;5.25;71.42;99784.89;111587;1252;23683;-74
2024/04/18 02:11:41;;;;;;;23.50;19.10;;;;;;;5.25;71.57;99779.49;111214;1252;21963;-73
2024/04/18 02:14:13;;;;;;;20.40;16.40;;;;;;;5.27;71.50;99776.38;111242;1252;22097;-74
2024/04/18 02:16:42;;;;;;;23.90;17.20;;;;;;;5.30;71.56;99777.09;111290;1252;22741;-74
2024/04/18 02:19:26;;;;;;;21.50;18.60;;;;;;;5.30;71.23;99776.03;111214;1252;21970;-75
2024/04/18 02:22:14;;;;;;;21.90;18.00;;;;;;;5.30;71.26;99777.45;111122;1252;21993;-75
2024/04/18 02:25:08;;;;;;;32.50;19.40;;;;;;;5.31;71.20;99775.63;111536;1252;21964;-75
2024/04/18 02:27:42;;;;;;;23.10;19.00;;;;;;;5.31;71.25;99775.33;111292;1252;21950;-75
2024/04/18 02:30:23;;;;;;;25.70;19.90;;;;;;;5.31;71.44;99778.43;111247;1252;24100;-73
2024/04/18 02:33:14;;;;;;;25.50;21.20;;;;;;;5.32;71.39;99780.13;111249;1252;23669;-74
2024/04/18 02:35:47;;;;;;;29.30;22.80;;;;;;;5.33;71.05;99779.04;111066;1252;22061;-78
2024/04/18 02:38:34;;;;;;;27.50;22.00;;;;;;;5.34;71.14;99782.13;111408;1252;22216;-73
2024/04/18 02:41:05;;;;;;;28.30;23.00;;;;;;;5.35;71.07;99783.27;111061;1252;21971;-74
2024/04/18 02:43:54;;;;;;;29.50;23.00;;;;;;;5.34;71.14;99781.05;111211;1252;22030;-75
2024/04/18 02:46:23;;;;;;;27.90;22.00;;;;;;;5.37;71.07;99785.59;111314;1252;23688;-78
2024/04/18 02:49:11;;;;;;;28.50;22.80;;;;;;;5.37;71.08;99786.48;111284;1252;21945;-76
2024/04/18 02:51:58;;;;;;;27.40;22.40;;;;;;;5.38;71.09;99783.98;111214;1252;23569;-73
2024/04/18 02:54:45;;;;;;;32.10;23.70;;;;;;;5.37;71.06;99784.17;111165;1252;21961;-73
2024/04/18 02:57:14;;;;;;;27.00;21.60;;;;;;;5.39;70.91;99784.08;111273;1252;23032;-73
2024/04/18 02:59:43;;;;;;;24.30;20.50;;;;;;;5.40;70.91;99789.80;111253;1252;23632;-73
2024/04/18 03:02:24;;;;;;;28.00;19.60;;;;;;;5.40;70.87;99786.48;111246;1252;21949;-73
2024/04/18 03:05:16;;;;;;;23.90;19.30;;;;;;;5.39;70.69;99783.92;111319;1252;22046;-73
2024/04/18 03:07:56;;;;;;;22.50;17.90;;;;;;;5.38;70.81;99783.98;111353;1252;21955;-73
2024/04/18 03:10:24;;;;;;;17.80;15.90;;;;;;;5.39;70.57;99786.19;111018;1252;21960;-72
2024/04/18 03:12:59;;;;;;;19.20;16.90;;;;;;;5.38;70.49;99785.89;111271;1252;22589;-73
2024/04/18 03:16:00;;;;;;;20.50;17.50;;;;;;;5.36;70.65;99786.20;110811;1252;21969;-72
2024/04/18 03:18:44;;;;;;;19.50;17.20;;;;;;;5.36;70.93;99786.22;111264;1252;22021;-73
2024/04/18 03:21:16;;;;;;;17.20;14.80;;;;;;;5.36;70.86;99786.34;111047;1252;21942;-73
2024/04/18 03:23:45;;;;;;;22.80;16.80;;;;;;;5.37;70.64;99791.02;111005;1252;21952;-74
2024/04/18 03:26:33;;;;;;;19.70;16.90;;;;;;;5.35;70.75;99793.08;111198;1252;21961;-73
2024/04/18 03:29:02;;;;;;;18.60;16.70;;;;;;;5.35;70.92;99794.99;111266;1252;21958;-75
2024/04/18 03:31:31;;;;;;;16.90;15.00;;;;;;;5.36;70.96;99796.67;111284;1252;21949;-74
2024/04/18 03:34:00;;;;;;;17.10;15.30;;;;;;;5.36;71.12;99798.23;110840;1258;22163;-74
2024/04/18 03:36:29;;;;;;;17.50;15.60;;;;;;;5.35;70.84;99800.53;110796;1258;25007;-73
2024/04/18 03:39:00;;;;;;;25.40;17.60;;;;;;;5.35;70.81;99806.12;110836;1258;21963;-74
2024/04/18 03:41:30;;;;;;;21.80;19.10;;;;;;;5.35;71.24;99809.44;110776;1258;23653;-75
2024/04/18 03:44:17;;;;;;;51.00;42.90;;;;;;;5.36;71.38;99812.58;110726;1257;21960;-74
2024/04/18 03:46:46;;;;;;;31.60;28.30;;;;;;;5.38;71.31;99817.64;110253;1263;21964;-74
2024/04/18 03:49:34;;;;;;;29.30;25.00;;;;;;;5.35;71.26;99817.86;110409;1263;22061;-73
2024/04/18 03:52:03;;;;;;;30.80;25.30;;;;;;;5.35;71.28;99821.17;110388;1257;21967;-74
2024/04/18 03:54:35;;;;;;;27.80;24.90;;;;;;;5.36;71.28;99827.58;110463;1259;23018;-74
2024/04/18 03:57:41;;;;;;;23.20;19.80;;;;;;;5.33;71.28;99825.30;110481;1259;21958;-73
2024/04/18 04:00:10;;;;;;;20.50;18.40;;;;;;;5.33;71.06;99825.80;110516;1259;22420;-75
2024/04/18 04:02:39;;;;;;;22.10;19.80;;;;;;;5.35;71.11;99828.34;110467;1259;22473;-73
2024/04/18 04:05:08;;;;;;;22.20;19.40;;;;;;;5.36;71.30;99835.26;110757;1252;21963;-73
2024/04/18 04:07:37;;;;;;;24.10;20.40;;;;;;;5.37;71.27;99838.64;111292;1252;24374;-73
2024/04/18 04:10:06;;;;;;;24.40;21.50;;;;;;;5.40;71.51;99843.90;111219;1252;21982;-73
2024/04/18 04:12:39;;;;;;;23.70;20.60;;;;;;;5.42;71.22;99847.29;111253;1252;21952;-73
2024/04/18 04:15:08;;;;;;;24.00;20.20;;;;;;;5.41;70.97;99847.34;111246;1252;21952;-73
2024/04/18 04:17:37;;;;;;;24.60;20.90;;;;;;;5.41;70.91;99848.94;111268;1250;21951;-74
2024/04/18 04:20:06;;;;;;;23.50;18.80;;;;;;;5.40;70.96;99851.09;111316;1252;21958;-74
2024/04/18 04:22:35;;;;;;;26.10;20.60;;;;;;;5.39;70.90;99855.14;111365;1252;23013;-74
2024/04/18 04:25:20;;;;;;;22.90;20.20;;;;;;;5.38;71.32;99856.05;111407;1252;21953;-73
2024/04/18 04:27:49;;;;;;;24.30;20.70;;;;;;;5.40;71.12;99862.08;111268;1252;23730;-74
2024/04/18 04:30:18;;;;;;;25.50;19.80;;;;;;;5.41;70.99;99864.10;111310;1252;22556;-75
2024/04/18 04:32:47;;;;;;;25.20;20.80;;;;;;;5.41;70.98;99858.67;111289;1252;22419;-75
2024/04/18 04:35:34;;;;;;;25.50;19.50;;;;;;;5.41;70.68;99862.55;111248;1252;21949;-75
2024/04/18 04:38:03;;;;;;;21.20;19.10;;;;;;;5.38;70.44;99868.44;111288;1252;21965;-73
2024/04/18 04:40:35;;;;;;;25.80;20.30;;;;;;;5.37;70.62;99868.49;111275;1252;21945;-74
2024/04/18 04:43:03;;;;;;;27.90;20.70;;;;;;;5.38;70.34;99870.58;111255;1252;22733;-75
2024/04/18 04:45:32;;;;;;;26.40;20.70;;;;;;;5.36;70.18;99872.43;111339;1252;21967;-75
2024/04/18 04:48:08;;;;;;;28.90;23.10;;;;;;;5.35;70.23;99877.38;111307;1252;21966;-75
2024/04/18 04:51:01;;;;;;;29.10;21.50;;;;;;;5.34;69.93;99887.75;111316;1251;21953;-74
2024/04/18 04:53:33;;;;;;;31.70;22.30;;;;;;;5.35;70.17;99891.88;111333;1252;23598;-75
2024/04/18 04:56:02;;;;;;;23.10;18.40;;;;;;;5.38;69.74;99891.17;111334;1252;21952;-75
2024/04/18 04:58:31;;;;;;;21.10;17.20;;;;;;;5.37;69.05;99891.91;111266;1252;21951;-74
2024/04/18 05:01:00;;;;;;;92.90;55.50;;;;;;;5.34;68.23;99890.15;111318;1252;22060;-74
2024/04/18 05:03:38;;;;;;;30.50;21.40;;;;;;;5.31;68.06;99889.48;111253;1252;24077;-75
2024/04/18 05:06:25;;;;;;;46.70;32.80;;;;;;;5.31;68.17;99890.86;111281;1252;21958;-75
2024/04/18 05:09:16;;;;;;;64.60;49.40;;;;;;;5.37;68.16;99894.39;111192;1252;22947;-73
2024/04/18 05:11:46;;;;;;;46.50;39.60;;;;;;;5.44;67.43;99897.95;111226;1252;21949;-75
2024/04/18 05:14:33;;;;;;;42.60;37.90;;;;;;;5.45;66.78;99899.29;111228;1252;21955;-74
2024/04/18 05:17:22;;;;;;;24.50;21.20;;;;;;;5.42;66.64;99902.65;111485;1252;21963;-75
2024/04/18 05:20:11;;;;;;;22.30;15.70;;;;;;;5.39;66.57;99906.27;111241;1252;23570;-74
2024/04/18 05:22:40;;;;;;;17.30;15.70;;;;;;;5.39;66.61;99911.17;111056;1252;22425;-73
2024/04/18 05:25:09;;;;;;;18.70;16.70;;;;;;;5.39;66.78;99914.66;111282;1252;22857;-73
2024/04/18 05:27:53;;;;;;;22.20;20.10;;;;;;;5.41;66.95;99925.36;111216;1252;21962;-74
2024/04/18 05:33:25;;;;;;;19.50;15.80;;;;;;;5.41;66.85;99941.47;111011;1251;21964;-73
2024/04/18 05:35:55;;;;;;;16.10;14.00;;;;;;;5.39;66.95;99946.10;111299;1251;21956;-75
2024/04/18 05:38:25;;;;;;;14.80;12.70;;;;;;;5.35;66.75;99947.39;111341;1251;22011;-74
2024/04/18 05:40:54;;;;;;;12.60;10.90;;;;;;;5.29;66.91;99944.93;111130;1251;23620;-74
2024/04/18 05:43:42;;;;;;;15.90;11.80;;;;;;;5.16;66.76;99948.59;111292;1251;23579;-74
2024/04/18 05:46:11;;;;;;;18.10;13.70;;;;;;;5.01;66.82;99952.90;111342;1251;21952;-74
2024/04/18 05:48:41;;;;;;;20.50;16.30;;;;;;;4.84;67.10;99955.02;111387;1251;21997;-73
2024/04/18 05:51:10;;;;;;;23.20;18.70;;;;;;;4.68;67.50;99956.89;111409;1251;21949;-75
2024/04/18 05:53:53;;;;;;;21.50;18.30;;;;;;;4.55;67.92;99950.09;111300;1251;22251;-73
2024/04/18 05:56:31;;;;;;;21.30;19.00;;;;;;;4.42;68.64;99949.86;111243;1251;21956;-74
2024/04/18 05:59:00;;;;;;;25.50;18.80;;;;;;;4.34;68.97;99951.64;111403;1251;21952;-74
2024/04/18 06:01:29;;;;;;;23.00;18.70;;;;;;;4.26;69.39;99950.30;111387;1249;21961;-74
2024/04/18 06:03:58;;;;;;;22.70;18.90;;;;;;;4.18;69.70;99946.20;111321;1251;21964;-74
2024/04/18 06:06:28;;;;;;;19.50;16.80;;;;;;;4.13;70.17;99944.17;111349;1251;23337;-73
2024/04/18 06:09:17;;;;;;;18.50;16.30;;;;;;;4.16;70.92;99943.54;111272;1251;21942;-74
2024/04/18 06:11:48;;;;;;;19.80;17.70;;;;;;;4.26;70.86;99948.05;111044;1251;21949;-73
2024/04/18 06:14:19;;;;;;;20.40;18.30;;;;;;;4.33;70.74;99948.40;111321;1251;21949;-73
2024/04/18 06:16:49;;;;;;;26.30;23.60;;;;;;;4.41;70.54;99948.88;111303;1251;21959;-74
2024/04/18 06:19:19;;;;;;;27.20;24.30;;;;;;;4.50;70.88;99945.80;111273;1251;22724;-73
2024/04/18 06:21:47;;;;;;;33.60;30.30;;;;;;;4.71;71.70;99950.64;111371;1251;23570;-73
2024/04/18 06:24:17;;;;;;;36.10;32.60;;;;;;;5.00;71.24;99955.52;111398;1251;21949;-74
2024/04/18 06:26:45;;;;;;;33.60;30.70;;;;;;;5.33;70.95;99955.02;111354;1251;22021;-74
2024/04/18 06:29:14;;;;;;;30.10;27.40;;;;;;;5.67;70.38;99960.46;111371;1251;21952;-72
2024/04/18 06:31:43;;;;;;;24.70;22.40;;;;;;;5.88;69.47;99960.13;111370;1251;23601;-73
2024/04/18 06:34:12;;;;;;;28.00;23.50;;;;;;;5.97;68.36;99962.79;111312;1251;21967;-73
2024/04/18 06:36:41;;;;;;;29.50;26.70;;;;;;;6.00;67.72;99964.90;111113;1253;21945;-73
2024/04/18 06:39:10;;;;;;;34.20;30.70;;;;;;;6.01;67.56;99963.27;111039;1253;21963;-73
2024/04/18 06:41:39;;;;;;;34.50;31.10;;;;;;;6.17;68.61;99970.05;111041;1253;23580;-73
2024/04/18 06:44:08;;;;;;;31.20;28.40;;;;;;;6.46;68.42;99971.81;111119;1253;21955;-73
2024/04/18 06:46:38;;;;;;;30.60;27.60;;;;;;;6.83;67.44;99975.55;111088;1253;21953;-73
2024/04/18 06:49:20;;;;;;;27.90;25.10;;;;;;;7.15;66.22;99980.96;111009;1252;21994;-73
2024/04/18 06:51:49;;;;;;;22.40;20.40;;;;;;;7.26;64.17;99979.60;110986;1253;21954;-73
2024/04/18 06:54:18;;;;;;;19.30;16.20;;;;;;;7.28;64.13;99984.35;111179;1253;21952;-73
2024/04/18 06:56:47;;;;;;;15.40;13.80;;;;;;;7.48;64.09;99979.57;111131;1253;22424;-73
2024/04/18 06:59:16;;;;;;;24.30;20.20;;;;;;;8.00;64.53;99981.02;111118;1253;21998;-73
2024/04/18 07:01:45;;;;;;;22.70;20.20;;;;;;;8.59;62.99;99983.55;111047;1253;21962;-73
2024/04/18 07:04:16;;;;;;;14.40;12.70;;;;;;;9.12;61.55;99985.57;110999;1253;21948;-73
2024/04/18 07:07:07;;;;;;;17.10;12.10;;;;;;;9.53;59.61;99986.89;110956;1253;21952;-72
2024/04/18 07:09:38;;;;;;;13.40;11.90;;;;;;;9.80;58.30;99985.45;111217;1251;23744;-73
2024/04/18 07:12:28;;;;;;;12.30;9.90;;;;;;;10.14;57.65;99989.13;111296;1251;21946;-73
2024/04/18 07:15:16;;;;;;;22.00;9.40;;;;;;;10.54;56.13;99991.25;111344;1251;22122;-72
2024/04/18 07:17:45;;;;;;;9.80;8.00;;;;;;;10.87;55.36;99991.92;111312;1251;21950;-73
2024/04/18 07:20:15;;;;;;;10.00;7.90;;;;;;;11.29;54.11;99994.77;111326;1251;21950;-73
2024/04/18 07:23:04;;;;;;;9.60;8.00;;;;;;;11.61;52.58;99993.52;111259;1251;21962;-74
2024/04/18 07:25:39;;;;;;;9.40;8.30;;;;;;;11.75;51.20;99991.97;111301;1251;24115;-73
2024/04/18 07:28:27;;;;;;;12.10;9.30;;;;;;;11.57;50.99;99997.11;111504;1251;21965;-72
2024/04/18 07:30:56;;;;;;;8.90;8.00;;;;;;;11.30;51.51;99996.83;111520;1251;23193;-72
2024/04/18 07:33:25;;;;;;;10.10;9.10;;;;;;;11.06;52.23;99998.55;111471;1251;22050;-73
2024/04/18 07:35:56;;;;;;;10.60;9.60;;;;;;;10.91;52.36;99996.52;111309;1251;23018;-73
2024/04/18 07:38:28;;;;;;;11.80;10.70;;;;;;;10.78;52.03;99999.82;111415;1251;23472;-73
2024/04/18 07:40:57;;;;;;;12.10;10.80;;;;;;;10.77;52.29;99998.17;111166;1251;21962;-73
2024/04/18 07:43:26;;;;;;;11.00;9.90;;;;;;;11.01;52.31;100000.73;111392;1251;21949;-73
2024/04/18 07:45:55;;;;;;;11.90;10.80;;;;;;;11.49;51.66;100002.73;111432;1251;22665;-73
2024/04/18 07:48:24;;;;;;;11.10;10.00;;;;;;;11.80;50.89;100002.17;111338;1251;21949;-72
2024/04/18 07:50:53;;;;;;;11.00;10.00;;;;;;;11.79;49.89;100004.72;111352;1251;22536;-73
2024/04/18 07:53:22;;;;;;;14.30;12.90;;;;;;;11.60;49.70;100011.34;111498;1251;21949;-74
2024/04/18 07:55:51;;;;;;;26.30;17.90;;;;;;;11.53;50.50;100013.73;111342;1251;21949;-73
2024/04/18 07:58:20;;;;;;;17.50;14.80;;;;;;;11.55;50.77;100012.52;111333;1251;21950;-73
2024/04/18 08:00:52;;;;;;;15.30;13.80;;;;;;;11.56;50.42;100011.17;111322;1251;23006;-72
2024/04/18 08:03:24;;;;;;;23.90;16.20;;;;;;;11.61;51.12;100011.86;111442;1251;24100;-73
2024/04/18 08:05:56;;;;;;;15.10;13.60;;;;;;;11.97;51.13;100009.30;111559;1251;21952;-73
2024/04/18 08:08:30;;;;;;;14.50;13.10;;;;;;;12.14;49.10;100009.69;111303;1251;21947;-72
2024/04/18 08:11:08;;;;;;;17.20;15.40;;;;;;;11.95;48.96;100005.38;111362;1251;22718;-73
2024/04/18 08:13:43;;;;;;;14.70;13.40;;;;;;;11.68;49.36;100006.54;111451;1251;21955;-74
2024/04/18 08:16:17;;;;;;;15.30;13.50;;;;;;;11.36;49.72;100010.08;111152;1251;21961;-73
2024/04/18 08:18:47;;;;;;;17.40;15.40;;;;;;;11.14;50.67;100010.27;111351;1251;21965;-73
2024/04/18 08:21:16;;;;;;;16.90;14.70;;;;;;;11.01;51.04;100008.95;111101;1251;21955;-72
2024/04/18 08:23:51;;;;;;;15.60;13.80;;;;;;;10.88;50.69;100006.40;111397;1251;23697;-73
2024/04/18 08:26:20;;;;;;;14.60;13.10;;;;;;;10.66;50.56;100010.23;111376;1251;22054;-74
2024/04/18 08:28:49;;;;;;;14.30;12.90;;;;;;;10.42;50.78;100009.89;111333;1251;22421;-72
2024/04/18 08:31:26;;;;;;;17.50;14.10;;;;;;;10.18;51.13;100011.52;111379;1251;21954;-73
2024/04/18 08:33:55;;;;;;;15.30;13.20;;;;;;;10.05;51.96;100012.98;111402;1251;22420;-74
2024/04/18 08:36:34;;;;;;;16.40;13.50;;;;;;;10.06;53.18;100015.39;111291;1251;21950;-71
2024/04/18 08:39:03;;;;;;;17.40;11.10;;;;;;;10.39;52.58;100017.34;111346;1251;21952;-73
2024/04/18 08:41:34;;;;;;;14.90;12.00;;;;;;;10.73;51.57;100020.45;111070;1251;21950;-72
2024/04/18 08:44:10;;;;;;;14.30;11.90;;;;;;;10.87;51.40;100021.50;111046;1251;21954;-72
2024/04/18 08:46:40;;;;;;;9.70;8.80;;;;;;;10.82;51.10;100023.66;111339;1251;23059;-72
2024/04/18 08:49:13;;;;;;;7.30;6.60;;;;;;;10.74;50.63;100022.86;111363;1251;23660;-73
2024/04/18 08:51:44;;;;;;;10.70;8.30;;;;;;;10.72;49.28;100024.77;111372;1251;23026;-74
2024/04/18 08:54:13;;;;;;;8.10;7.20;;;;;;;10.67;49.30;100028.44;111448;1251;21987;-73
2024/04/18 08:56:53;;;;;;;7.90;6.80;;;;;;;10.58;49.56;100027.43;111377;1251;22049;-74
2024/04/18 08:59:22;;;;;;;6.90;5.80;;;;;;;10.46;49.43;100027.25;111405;1251;21957;-74
2024/04/18 09:01:52;;;;;;;11.90;7.20;;;;;;;10.27;48.90;100024.95;111380;1251;21949;-74
2024/04/18 09:04:21;;;;;;;9.70;5.50;;;;;;;10.11;49.31;100026.09;111382;1251;23019;-73
2024/04/18 09:06:50;;;;;;;9.20;5.90;;;;;;;10.02;49.36;100024.32;111447;1251;22041;-73
2024/04/18 09:09:22;;;;;;;9.10;6.20;;;;;;;9.96;49.09;100025.44;111035;1251;23656;-73
2024/04/18 09:11:51;;;;;;;;;;;;;;;9.83;49.01;100032.52;111049;1251;23212;-74
2024/04/18 09:14:20;;;;;;;12.60;6.60;;;;;;;9.60;49.92;100031.17;111382;1251;22415;-73
2024/04/18 09:16:49;;;;;;;10.60;6.60;;;;;;;9.56;49.93;100027.66;111391;1251;21950;-74
2024/04/18 09:19:18;;;;;;;9.50;5.90;;;;;;;9.55;50.10;100032.95;111366;1251;21962;-73
2024/04/18 09:21:47;;;;;;;8.10;6.20;;;;;;;9.57;49.70;100027.91;111352;1251;21966;-73
2024/04/18 09:24:16;;;;;;;9.90;5.20;;;;;;;9.60;49.51;100026.98;111441;1251;22023;-74
2024/04/18 09:26:46;;;;;;;8.40;6.50;;;;;;;9.63;49.81;100024.45;111416;1251;21953;-75
2024/04/18 09:29:15;;;;;;;7.80;5.30;;;;;;;9.68;49.15;100021.67;111432;1251;22056;-73
2024/04/18 09:31:45;;;;;;;5.30;4.50;;;;;;;9.64;48.28;100021.77;111316;1251;22031;-76
2024/04/18 09:34:15;;;;;;;8.00;5.40;;;;;;;9.54;48.18;100022.11;111128;1251;21949;-74
2024/04/18 09:36:45;;;;;;;7.60;5.70;;;;;;;9.45;48.42;100020.65;111366;1251;23016;-74
2024/04/18 09:39:27;;;;;;;7.60;5.80;;;;;;;9.43;48.86;100019.20;111351;1251;21941;-73
2024/04/18 09:42:28;;;;;;;8.60;4.90;;;;;;;9.43;48.42;100016.73;111233;1251;21989;-72
2024/04/18 09:45:03;;;;;;;7.60;4.40;;;;;;;9.45;47.65;100014.50;110625;1258;21970;-73
2024/04/18 09:47:34;;;;;;;7.50;5.00;;;;;;;9.59;47.45;100015.64;111168;1258;22710;-72
2024/04/18 09:50:03;;;;;;;4.50;3.70;;;;;;;9.77;47.29;100016.59;111145;1258;23666;-71
2024/04/18 09:52:34;;;;;;;4.90;4.00;;;;;;;10.00;46.24;100017.24;110908;1247;22226;-72
2024/04/18 09:55:05;;;;;;;7.70;5.90;;;;;;;10.23;45.65;100015.91;111052;1258;21941;-71
2024/04/18 09:57:37;;;;;;;7.20;4.00;;;;;;;10.36;44.16;100015.33;111006;1258;21959;-73
2024/04/18 10:00:10;;;;;;;5.40;4.20;;;;;;;10.36;44.47;100018.61;110737;1258;21941;-72
2024/04/18 10:02:42;;;;;;;5.80;4.20;;;;;;;10.41;44.61;100017.34;110637;1258;23579;-73
2024/04/18 10:05:11;;;;;;;6.10;4.30;;;;;;;10.43;44.25;100012.84;110749;1254;22751;-73
2024/04/18 10:07:41;;;;;;;10.40;4.60;;;;;;;10.38;44.72;100011.30;110839;1258;21993;-74
2024/04/18 10:10:11;;;;;;;5.40;4.20;;;;;;;10.33;45.55;100009.52;110701;1258;21961;-74
2024/04/18 10:12:40;;;;;;;6.20;5.10;;;;;;;10.32;45.58;100009.48;110722;1258;22755;-77
2024/04/18 10:15:09;;;;;;;5.40;4.30;;;;;;;10.26;45.20;100007.81;110648;1258;23054;-75
2024/04/18 10:17:39;;;;;;;8.80;5.60;;;;;;;10.21;45.37;100011.14;110461;1258;21964;-75
2024/04/18 10:20:09;;;;;;;10.60;4.70;;;;;;;10.26;45.24;100009.38;110675;1258;22063;-74
2024/04/18 10:22:38;;;;;;;6.30;3.70;;;;;;;10.26;43.96;100012.37;111048;1251;21963;-76
2024/04/18 10:25:20;;;;;;;6.60;4.30;;;;;;;10.20;43.49;100010.47;111374;1251;21952;-73
2024/04/18 10:27:49;;;;;;;5.00;3.80;;;;;;;10.12;43.53;100009.70;111320;1251;21954;-74
2024/04/18 10:30:24;;;;;;;7.50;3.50;;;;;;;10.08;43.81;100005.91;111322;1251;21958;-73
2024/04/18 10:32:55;;;;;;;4.50;3.60;;;;;;;10.30;43.90;100000.95;111436;1251;23031;-74
2024/04/18 10:35:25;;;;;;;4.10;3.10;;;;;;;10.87;43.39;100006.52;111120;1251;23740;-76
2024/04/18 10:37:57;;;;;;;3.50;2.80;;;;;;;11.50;41.83;100003.70;111294;1251;22803;-72
2024/04/18 10:40:27;;;;;;;3.90;2.50;;;;;;;11.91;40.84;100000.23;111403;1251;23602;-74
2024/04/18 10:43:15;;;;;;;4.80;3.50;;;;;;;12.38;39.98;100004.70;111461;1251;21955;-73
2024/04/18 10:45:48;;;;;;;5.30;3.00;;;;;;;12.79;38.91;99999.15;111335;1251;22154;-74
2024/04/18 10:48:19;;;;;;;3.40;3.00;;;;;;;13.03;37.94;99997.77;111133;1251;21953;-73
2024/04/18 10:50:50;;;;;;;8.10;3.20;;;;;;;13.05;37.51;99995.51;111347;1251;23598;-73
2024/04/18 10:53:20;;;;;;;5.10;4.30;;;;;;;12.80;38.42;100001.73;111309;1251;23010;-73
2024/04/18 10:55:50;;;;;;;4.30;3.60;;;;;;;12.28;39.24;100001.80;111321;1249;21954;-74
2024/04/18 10:58:19;;;;;;;8.20;4.40;;;;;;;12.01;40.30;100004.58;111404;1251;21951;-75
2024/04/18 11:00:48;;;;;;;4.40;3.30;;;;;;;12.02;39.83;100005.52;111167;1251;22809;-75
2024/04/18 11:03:17;;;;;;;4.70;3.10;;;;;;;12.07;38.84;100000.89;111045;1251;21950;-77
2024/04/18 11:05:46;;;;;;;3.60;2.80;;;;;;;11.91;37.87;99999.73;111408;1251;21949;-74
2024/04/18 11:08:20;;;;;;;4.70;3.20;;;;;;;11.69;37.87;100000.97;111306;1251;23566;-76
2024/04/18 11:10:50;;;;;;;4.70;3.20;;;;;;;11.54;38.62;100006.23;111374;1251;21965;-72
2024/04/18 11:13:19;;;;;;;5.00;2.90;;;;;;;11.43;38.92;100007.77;111388;1251;23358;-74
2024/04/18 11:15:48;;;;;;;5.20;3.80;;;;;;;11.35;39.67;100003.66;111341;1251;22949;-74
2024/04/18 11:18:18;;;;;;;4.90;4.20;;;;;;;11.36;39.75;100003.73;111404;1251;21951;-73
2024/04/18 11:20:46;;;;;;;12.40;6.20;;;;;;;11.31;40.29;100007.98;111304;1251;24303;-75
2024/04/18 11:23:15;;;;;;;6.30;4.10;;;;;;;11.22;40.39;100015.43;111029;1251;22740;-73
2024/04/18 11:25:45;;;;;;;7.70;3.60;;;;;;;11.04;39.37;100014.38;111536;1251;21953;-73
2024/04/18 11:28:14;;;;;;;4.30;3.90;;;;;;;10.84;39.03;100010.77;111306;1251;23766;-73
2024/04/18 11:30:43;;;;;;;4.80;4.10;;;;;;;10.75;39.60;100008.64;111358;1251;22418;-73
2024/04/18 11:33:18;;;;;;;5.40;4.20;;;;;;;10.74;40.76;100010.19;111369;1251;21953;-73
2024/04/18 11:35:47;;;;;;;3.60;2.80;;;;;;;10.83;41.57;100018.46;111362;1251;22915;-74
2024/04/18 11:38:20;;;;;;;5.00;3.50;;;;;;;10.94;41.40;100022.16;111171;1251;22012;-73
2024/04/18 11:40:49;;;;;;;3.60;2.80;;;;;;;11.03;41.53;100019.58;111359;1251;23014;-74
2024/04/18 11:43:18;;;;;;;3.90;2.40;;;;;;;11.12;41.09;100019.61;111199;1253;21972;-71
2024/04/18 11:45:46;;;;;;;6.50;2.60;;;;;;;11.17;40.33;100021.64;111349;1253;22018;-73
2024/04/18 11:48:15;;;;;;;3.20;2.60;;;;;;;11.19;40.65;100016.20;111372;1240;23792;-70
2024/04/18 11:50:45;;;;;;;7.30;2.80;;;;;;;11.28;40.87;100020.05;111291;1253;22015;-71